Wetterstation Vordersexau
Wetterdaten: Woche 29.06.15 - 05.07.15 (KW27)
Datum Zeit Temp. A. Feuchte A. Luftdruck Regen Wind Richtung Taupunkt Windchill Windben
29.06.2015 00:00 14,9 C 78 % 1018,3 hPa 0,0 l/m 0,0 km/h O-NO 11,1 C 14,9 C 0,0 km/h
29.06.2015 01:00 14,2 C 80 % 1018,3 hPa 0,0 l/m 0,0 km/h NO 10,8 C 14,2 C 0,0 km/h
29.06.2015 02:00 13,6 C 81 % 1018,3 hPa 0,0 l/m 0,0 km/h NO 10,4 C 13,6 C 0,0 km/h
29.06.2015 03:00 13,1 C 83 % 1018,4 hPa 0,0 l/m 0,0 km/h O-SO 10,3 C 13,1 C 0,0 km/h
29.06.2015 04:00 12,5 C 84 % 1018,5 hPa 0,0 l/m 0,0 km/h O-NO 9,9 C 12,5 C 0,0 km/h
29.06.2015 05:00 12,4 C 84 % 1018,4 hPa 0,0 l/m 0,0 km/h O-SO 9,8 C 12,4 C 0,0 km/h
29.06.2015 06:00 13,8 C 84 % 1018,7 hPa 0,0 l/m 0,0 km/h O-SO 11,1 C 13,8 C 0,0 km/h
29.06.2015 07:00 15,6 C 83 % 1019,2 hPa 0,0 l/m 0,0 km/h SO 12,7 C 15,6 C 0,0 km/h
29.06.2015 08:00 18,6 C 79 % 1019,3 hPa 0,0 l/m 0,0 km/h SO 14,9 C 18,6 C 0,0 km/h
29.06.2015 09:00 22,5 C 71 % 1019,3 hPa 0,0 l/m 3,2 km/h S-SW 17,0 C 22,5 C 1,8 km/h
29.06.2015 10:00 25,9 C 57 % 1019,3 hPa 0,0 l/m 3,9 km/h W-SW 16,7 C 25,9 C 2,2 km/h
29.06.2015 11:00 26,9 C 52 % 1019,2 hPa 0,0 l/m 0,0 km/h S-SO 16,2 C 26,9 C 0,0 km/h
29.06.2015 12:00 30,5 C 44 % 1019,0 hPa 0,0 l/m 0,0 km/h NO 16,8 C 30,5 C 0,0 km/h
29.06.2015 13:00 32,6 C 34 % 1018,6 hPa 0,0 l/m 5,8 km/h S 14,7 C 32,6 C 3,2 km/h
29.06.2015 14:00 33,4 C 34 % 1018,2 hPa 0,0 l/m 5,2 km/h W 15,4 C 33,4 C 2,9 km/h
29.06.2015 15:00 31,5 C 36 % 1018,0 hPa 0,0 l/m 0,0 km/h S-SW 14,6 C 31,5 C 0,0 km/h
29.06.2015 16:00 34,3 C 34 % 1017,7 hPa 0,0 l/m 0,0 km/h W-NW 16,1 C 34,3 C 0,0 km/h
29.06.2015 17:00 33,6 C 33 % 1017,5 hPa 0,0 l/m 0,0 km/h SO 15,1 C 33,6 C 0,0 km/h
29.06.2015 18:00 35,8 C 33 % 1017,5 hPa 0,0 l/m 0,0 km/h SO 17,0 C 35,8 C 0,0 km/h
29.06.2015 19:00 28,6 C 46 % 1017,8 hPa 0,0 l/m 0,0 km/h O-NO 15,8 C 28,6 C 0,0 km/h
29.06.2015 20:00 23,6 C 58 % 1017,7 hPa 0,0 l/m 0,0 km/h O-SO 14,8 C 23,6 C 0,0 km/h
29.06.2015 21:00 20,8 C 64 % 1018,1 hPa 0,0 l/m 0,0 km/h S-SO 13,7 C 20,8 C 0,0 km/h
29.06.2015 22:00 18,8 C 72 % 1018,5 hPa 0,0 l/m 0,0 km/h SO 13,6 C 18,8 C 0,0 km/h
29.06.2015 23:00 18,0 C 73 % 1018,7 hPa 0,0 l/m 0,0 km/h SO 13,1 C 18,0 C 0,0 km/h
30.06.2015 00:00 17,2 C 76 % 1018,6 hPa 0,0 l/m 3,2 km/h O-NO 12,9 C 17,2 C 1,8 km/h
30.06.2015 01:00 17,1 C 78 % 1018,4 hPa 0,0 l/m 0,0 km/h NO 13,2 C 17,1 C 0,0 km/h
30.06.2015 02:00 15,7 C 80 % 1018,2 hPa 0,0 l/m 0,0 km/h NO 12,3 C 15,7 C 0,0 km/h
30.06.2015 03:00 15,3 C 81 % 1018,0 hPa 0,0 l/m 0,0 km/h NO 12,1 C 15,3 C 0,0 km/h
30.06.2015 04:00 13,9 C 82 % 1018,0 hPa 0,0 l/m 0,0 km/h NO 10,9 C 13,9 C 0,0 km/h
30.06.2015 05:00 13,8 C 84 % 1018,1 hPa 0,0 l/m 0,0 km/h NO 11,1 C 13,8 C 0,0 km/h
30.06.2015 06:00 14,6 C 84 % 1018,3 hPa 0,0 l/m 0,0 km/h S 11,9 C 14,6 C 0,0 km/h
30.06.2015 07:00 21,0 C 82 % 1018,3 hPa 0,0 l/m 0,0 km/h W 17,8 C 21,0 C 0,0 km/h
30.06.2015 08:00 28,2 C 53 % 1018,4 hPa 0,0 l/m 0,0 km/h W-NW 17,7 C 28,2 C 0,0 km/h
30.06.2015 09:00 29,2 C 49 % 1018,6 hPa 0,0 l/m 0,0 km/h W 17,4 C 29,2 C 0,0 km/h
30.06.2015 10:00 29,3 C 51 % 1018,2 hPa 0,0 l/m 7,1 km/h NO 18,1 C 29,2 C 4,0 km/h
30.06.2015 11:00 29,4 C 49 % 1017,9 hPa 0,0 l/m 0,0 km/h W-NW 17,5 C 29,4 C 0,0 km/h
30.06.2015 12:00 29,4 C 52 % 1017,5 hPa 0,0 l/m 9,7 km/h NW 18,5 C 29,1 C 5,4 km/h
30.06.2015 13:00 31,1 C 45 % 1016,8 hPa 0,0 l/m 13,6 km/h N-NW 17,7 C 30,7 C 7,6 km/h
30.06.2015 14:00 32,6 C 44 % 1016,2 hPa 0,0 l/m 0,0 km/h N-NO 18,7 C 32,6 C 0,0 km/h
30.06.2015 15:00 32,9 C 44 % 1015,6 hPa 0,0 l/m 0,0 km/h N 19,0 C 32,9 C 0,0 km/h
30.06.2015 16:00 34,7 C 40 % 1015,1 hPa 0,0 l/m 0,0 km/h N-NO 19,1 C 34,7 C 0,0 km/h
30.06.2015 17:00 36,8 C 33 % 1014,7 hPa 0,0 l/m 22,7 km/h NW 17,8 C 36,8 C 12,6 km/h
30.06.2015 18:00 35,8 C 38 % 1014,5 hPa 0,0 l/m 0,0 km/h NW 19,2 C 35,8 C 0,0 km/h
30.06.2015 19:00 29,8 C 47 % 1014,7 hPa 0,0 l/m 0,0 km/h W-NW 17,2 C 29,8 C 0,0 km/h
30.06.2015 20:00 26,5 C 57 % 1014,7 hPa 0,0 l/m 0,0 km/h W-NW 17,3 C 26,5 C 0,0 km/h
30.06.2015 21:00 23,1 C 69 % 1015,3 hPa 0,0 l/m 0,0 km/h S 17,1 C 23,1 C 0,0 km/h
30.06.2015 22:00 21,3 C 74 % 1015,6 hPa 0,0 l/m 0,0 km/h SO 16,5 C 21,3 C 0,0 km/h
30.06.2015 23:00 19,8 C 77 % 1015,6 hPa 0,0 l/m 5,8 km/h SO 15,6 C 19,8 C 3,2 km/h
01.07.2015 00:00 18,4 C 79 % 1015,5 hPa 0,0 l/m 0,0 km/h O-SO 14,7 C 18,4 C 0,0 km/h
01.07.2015 01:00 18,1 C 79 % 1015,3 hPa 0,0 l/m 0,0 km/h N-NO 14,4 C 18,1 C 0,0 km/h
01.07.2015 02:00 16,8 C 81 % 1015,2 hPa 0,0 l/m 3,2 km/h N-NO 13,5 C 16,8 C 1,8 km/h
01.07.2015 03:00 14,9 C 82 % 1015,2 hPa 0,0 l/m 0,0 km/h O 11,9 C 14,9 C 0,0 km/h
01.07.2015 04:00 14,9 C 83 % 1015,6 hPa 0,0 l/m 0,0 km/h O 12,0 C 14,9 C 0,0 km/h
01.07.2015 05:00 14,1 C 84 % 1015,9 hPa 0,0 l/m 0,0 km/h NO 11,4 C 14,1 C 0,0 km/h
01.07.2015 06:00 15,8 C 84 % 1016,4 hPa 0,0 l/m 0,0 km/h O-NO 13,1 C 15,8 C 0,0 km/h
01.07.2015 07:00 22,9 C 80 % 1016,3 hPa 0,0 l/m 0,0 km/h W-NW 19,3 C 22,9 C 0,0 km/h
01.07.2015 08:00 30,3 C 50 % 1016,3 hPa 0,0 l/m 0,0 km/h W-NW 18,7 C 30,3 C 0,0 km/h
01.07.2015 09:00 31,8 C 47 % 1016,6 hPa 0,0 l/m 0,0 km/h NO 19,1 C 31,8 C 0,0 km/h
01.07.2015 10:00 31,4 C 46 % 1016,1 hPa 0,0 l/m 0,0 km/h W-NW 18,4 C 31,4 C 0,0 km/h
01.07.2015 11:00 32,3 C 42 % 1015,8 hPa 0,0 l/m 4,5 km/h W-NW 17,7 C 32,3 C 2,5 km/h
01.07.2015 12:00 32,9 C 42 % 1015,4 hPa 0,0 l/m 1,3 km/h W-NW 18,3 C 32,9 C 0,7 km/h
01.07.2015 13:00 34,6 C 33 % 1015,1 hPa 0,0 l/m 19,4 km/h W-NW 15,9 C 34,6 C 10,8 km/h
01.07.2015 14:00 36,1 C 30 % 1014,6 hPa 0,0 l/m 0,0 km/h W-SW 15,7 C 36,1 C 0,0 km/h
01.07.2015 15:00 35,8 C 31 % 1014,4 hPa 0,0 l/m 7,1 km/h W-NW 16,0 C 35,8 C 4,0 km/h
01.07.2015 16:00 37,7 C 30 % 1014,2 hPa 0,0 l/m 2,6 km/h W-NW 17,1 C 37,7 C 1,4 km/h
01.07.2015 17:00 40,4 C 28 % 1014,2 hPa 0,0 l/m 0,0 km/h NW 18,3 C 40,4 C 0,0 km/h
01.07.2015 18:00 41,3 C 27 % 1013,8 hPa 0,0 l/m 0,0 km/h NO 18,5 C 41,3 C 0,0 km/h
01.07.2015 19:00 33,1 C 43 % 1013,9 hPa 0,0 l/m 0,0 km/h N-NO 18,8 C 33,1 C 0,0 km/h
01.07.2015 20:00 28,5 C 55 % 1014,1 hPa 0,0 l/m 0,0 km/h NO 18,6 C 28,5 C 0,0 km/h
01.07.2015 21:00 24,4 C 65 % 1014,7 hPa 0,0 l/m 0,0 km/h O 17,4 C 24,4 C 0,0 km/h
01.07.2015 22:00 22,7 C 72 % 1015,3 hPa 0,0 l/m 0,0 km/h SO 17,4 C 22,7 C 0,0 km/h
01.07.2015 23:00 21,9 C 73 % 1015,4 hPa 0,0 l/m 0,0 km/h S-SO 16,8 C 21,9 C 0,0 km/h
02.07.2015 00:00 20,7 C 74 % 1015,6 hPa 0,0 l/m 0,0 km/h S-SO 15,9 C 20,7 C 0,0 km/h
02.07.2015 01:00 19,2 C 77 % 1015,9 hPa 0,0 l/m 0,0 km/h SO 15,1 C 19,2 C 0,0 km/h
02.07.2015 02:00 18,6 C 80 % 1016,3 hPa 0,0 l/m 0,0 km/h S-SO 15,1 C 18,6 C 0,0 km/h
02.07.2015 03:00 18,1 C 80 % 1016,2 hPa 0,0 l/m 0,0 km/h S-SO 14,6 C 18,1 C 0,0 km/h
02.07.2015 04:00 18,2 C 80 % 1016,6 hPa 0,0 l/m 0,0 km/h NO 14,7 C 18,2 C 0,0 km/h
02.07.2015 05:00 18,1 C 79 % 1016,5 hPa 0,0 l/m 0,0 km/h NO 14,4 C 18,1 C 0,0 km/h
02.07.2015 06:00 18,4 C 81 % 1017,0 hPa 0,0 l/m 0,0 km/h NO 15,1 C 18,4 C 0,0 km/h
02.07.2015 07:00 24,1 C 74 % 1017,4 hPa 0,0 l/m 0,0 km/h SO 19,2 C 24,1 C 0,0 km/h
02.07.2015 08:00 32,3 C 48 % 1017,4 hPa 0,0 l/m 0,0 km/h SW 19,9 C 32,3 C 0,0 km/h
02.07.2015 09:00 35,3 C 41 % 1017,3 hPa 0,0 l/m 0,0 km/h N-NO 20,0 C 35,3 C 0,0 km/h
02.07.2015 10:00 35,1 C 44 % 1017,0 hPa 0,0 l/m 0,0 km/h W-NW 21,0 C 35,1 C 0,0 km/h
02.07.2015 11:00 35,7 C 44 % 1016,8 hPa 0,0 l/m 0,0 km/h N-NW 21,5 C 35,7 C 0,0 km/h
02.07.2015 12:00 35,3 C 45 % 1016,6 hPa 0,0 l/m 0,0 km/h W 21,5 C 35,3 C 0,0 km/h
02.07.2015 13:00 36,4 C 40 % 1016,6 hPa 0,0 l/m 3,2 km/h NW 20,6 C 36,4 C 1,8 km/h
02.07.2015 14:00 38,1 C 36 % 1016,4 hPa 0,0 l/m 3,2 km/h SW 20,4 C 38,1 C 1,8 km/h
02.07.2015 15:00 38,3 C 35 % 1016,0 hPa 0,0 l/m 3,9 km/h NW 20,1 C 38,3 C 2,2 km/h
02.07.2015 16:00 40,4 C 34 % 1015,8 hPa 0,0 l/m 8,4 km/h N 21,4 C 40,4 C 4,7 km/h
02.07.2015 17:00 38,9 C 35 % 1016,0 hPa 0,0 l/m 0,0 km/h N-NO 20,6 C 38,9 C 0,0 km/h
02.07.2015 18:00 40,5 C 36 % 1016,1 hPa 0,0 l/m 0,0 km/h O-NO 22,5 C 40,5 C 0,0 km/h
02.07.2015 19:00 34,2 C 51 % 1016,0 hPa 0,0 l/m 0,0 km/h O-NO 22,6 C 34,2 C 0,0 km/h
02.07.2015 20:00 29,2 C 61 % 1016,5 hPa 0,0 l/m 0,0 km/h O-NO 20,9 C 29,2 C 0,0 km/h
02.07.2015 21:00 26,4 C 66 % 1017,5 hPa 0,0 l/m 0,0 km/h O-NO 19,5 C 26,4 C 0,0 km/h
02.07.2015 22:00 24,7 C 72 % 1018,2 hPa 0,0 l/m 0,0 km/h O-NO 19,3 C 24,7 C 0,0 km/h
02.07.2015 23:00 23,8 C 77 % 1018,6 hPa 0,0 l/m 0,0 km/h S-SO 19,5 C 23,8 C 0,0 km/h
03.07.2015 00:00 23,0 C 77 % 1018,9 hPa 0,0 l/m 0,0 km/h SO 18,7 C 23,0 C 0,0 km/h
03.07.2015 01:00 22,4 C 79 % 1019,1 hPa 0,0 l/m 0,0 km/h O-SO 18,6 C 22,4 C 0,0 km/h
03.07.2015 02:00 21,6 C 80 % 1019,3 hPa 0,0 l/m 0,0 km/h S-SO 18,0 C 21,6 C 0,0 km/h
03.07.2015 03:00 20,8 C 82 % 1019,5 hPa 0,0 l/m 0,0 km/h O-SO 17,6 C 20,8 C 0,0 km/h
03.07.2015 04:00 20,4 C 82 % 1019,7 hPa 0,0 l/m 0,0 km/h S-SO 17,2 C 20,4 C 0,0 km/h
03.07.2015 05:00 19,8 C 83 % 1020,2 hPa 0,0 l/m 0,0 km/h S-SO 16,8 C 19,8 C 0,0 km/h
03.07.2015 06:00 20,8 C 82 % 1020,4 hPa 0,0 l/m 0,0 km/h S-SO 17,6 C 20,8 C 0,0 km/h
03.07.2015 07:00 25,3 C 77 % 1020,8 hPa 0,0 l/m 0,0 km/h S-SO 21,0 C 25,3 C 0,0 km/h
03.07.2015 08:00 31,8 C 59 % 1020,9 hPa 0,0 l/m 0,0 km/h W 22,8 C 31,8 C 0,0 km/h
03.07.2015 09:00 35,6 C 47 % 1020,9 hPa 0,0 l/m 1,9 km/h W-NW 22,5 C 35,6 C 1,1 km/h
03.07.2015 10:00 35,1 C 43 % 1020,9 hPa 0,0 l/m 0,0 km/h W-NW 20,6 C 35,1 C 0,0 km/h
03.07.2015 11:00 34,9 C 43 % 1020,7 hPa 0,0 l/m 3,2 km/h W 20,4 C 34,9 C 1,8 km/h
03.07.2015 12:00 35,1 C 43 % 1020,3 hPa 0,0 l/m 5,2 km/h W-NW 20,6 C 35,1 C 2,9 km/h
03.07.2015 13:00 36,6 C 42 % 1020,1 hPa 0,0 l/m 9,1 km/h W-NW 21,6 C 36,6 C 5,0 km/h
03.07.2015 14:00 38,1 C 39 % 1019,3 hPa 0,0 l/m 0,0 km/h W-NW 21,7 C 38,1 C 0,0 km/h
03.07.2015 15:00 38,2 C 39 % 1019,3 hPa 0,0 l/m 23,3 km/h N-NW 21,8 C 38,2 C 13,0 km/h
03.07.2015 16:00 37,9 C 39 % 1018,5 hPa 0,0 l/m 0,0 km/h N 21,5 C 37,9 C 0,0 km/h
03.07.2015 17:00 39,6 C 35 % 1018,8 hPa 0,0 l/m 0,0 km/h S-SO 21,2 C 39,6 C 0,0 km/h
03.07.2015 18:00 39,4 C 35 % 1018,6 hPa 0,0 l/m 22,7 km/h S-SO 21,0 C 39,4 C 12,6 km/h
03.07.2015 19:00 32,9 C 40 % 1018,2 hPa 0,0 l/m 0,0 km/h N-NW 17,5 C 32,9 C 0,0 km/h
03.07.2015 20:00 29,9 C 53 % 1018,0 hPa 0,0 l/m 0,0 km/h O-SO 19,3 C 29,9 C 0,0 km/h
03.07.2015 21:00 25,9 C 61 % 1018,4 hPa 0,0 l/m 0,0 km/h SO 17,8 C 25,9 C 0,0 km/h
03.07.2015 22:00 24,3 C 65 % 1018,4 hPa 0,0 l/m 0,0 km/h NO 17,3 C 24,3 C 0,0 km/h
03.07.2015 23:00 22,9 C 68 % 1018,3 hPa 0,0 l/m 0,0 km/h SO 16,7 C 22,9 C 0,0 km/h
04.07.2015 00:00 21,8 C 71 % 1018,1 hPa 0,0 l/m 0,0 km/h O 16,3 C 21,8 C 0,0 km/h
04.07.2015 01:00 20,0 C 74 % 1018,2 hPa 0,0 l/m 0,0 km/h NO 15,2 C 20,0 C 0,0 km/h
04.07.2015 02:00 19,6 C 76 % 1018,0 hPa 0,0 l/m 0,0 km/h O 15,2 C 19,6 C 0,0 km/h
04.07.2015 03:00 18,6 C 78 % 1018,0 hPa 0,0 l/m 0,0 km/h O-NO 14,7 C 18,6 C 0,0 km/h
04.07.2015 04:00 18,9 C 78 % 1017,7 hPa 0,0 l/m 0,0 km/h O 15,0 C 18,9 C 0,0 km/h
04.07.2015 05:00 19,2 C 78 % 1017,9 hPa 0,0 l/m 0,0 km/h SO 15,3 C 19,2 C 0,0 km/h
04.07.2015 06:00 20,2 C 76 % 1018,0 hPa 0,0 l/m 0,0 km/h SO 15,8 C 20,2 C 0,0 km/h
04.07.2015 07:00 24,5 C 74 % 1018,2 hPa 0,0 l/m 1,9 km/h S-SO 19,6 C 24,5 C 1,1 km/h
04.07.2015 08:00 33,8 C 51 % 1018,6 hPa 0,0 l/m 0,0 km/h W-NW 22,2 C 33,8 C 0,0 km/h
04.07.2015 09:00 34,9 C 37 % 1018,6 hPa 0,0 l/m 18,1 km/h SW 18,0 C 34,9 C 10,1 km/h
04.07.2015 10:00 34,8 C 34 % 1018,8 hPa 0,0 l/m 20,1 km/h SW 16,6 C 34,8 C 11,2 km/h
04.07.2015 11:00 35,3 C 37 % 1018,7 hPa 0,0 l/m 7,1 km/h W 18,4 C 35,3 C 4,0 km/h
04.07.2015 12:00 35,9 C 37 % 1018,5 hPa 0,0 l/m 7,1 km/h W-NW 18,9 C 35,9 C 4,0 km/h
04.07.2015 13:00 37,3 C 35 % 1018,2 hPa 0,0 l/m 9,7 km/h SW 19,2 C 37,3 C 5,4 km/h
04.07.2015 14:00 38,4 C 32 % 1017,8 hPa 0,0 l/m 9,1 km/h W 18,7 C 38,4 C 5,0 km/h
04.07.2015 15:00 39,9 C 29 % 1017,4 hPa 0,0 l/m 4,5 km/h W 18,4 C 39,9 C 2,5 km/h
04.07.2015 16:00 42,1 C 25 % 1017,3 hPa 0,0 l/m 0,0 km/h W 17,9 C 42,1 C 0,0 km/h
04.07.2015 17:00 42,9 C 23 % 1016,7 hPa 0,0 l/m 0,0 km/h N-NO 17,3 C 42,9 C 0,0 km/h
04.07.2015 18:00 35,9 C 30 % 1016,9 hPa 0,0 l/m 0,0 km/h O 15,6 C 35,9 C 0,0 km/h
04.07.2015 19:00 32,0 C 43 % 1016,7 hPa 0,0 l/m 0,0 km/h S-SO 17,8 C 32,0 C 0,0 km/h
04.07.2015 20:00 29,4 C 51 % 1016,7 hPa 0,0 l/m 7,8 km/h O-NO 18,2 C 29,2 C 4,3 km/h
04.07.2015 21:00 25,6 C 57 % 1016,6 hPa 0,0 l/m 0,0 km/h N-NO 16,4 C 25,6 C 0,0 km/h
04.07.2015 22:00 24,6 C 60 % 1016,1 hPa 0,0 l/m 0,0 km/h S-SO 16,3 C 24,6 C 0,0 km/h
04.07.2015 23:00 23,9 C 61 % 1016,3 hPa 0,0 l/m 5,2 km/h O-NO 15,9 C 23,9 C 2,9 km/h
05.07.2015 00:00 22,6 C 65 % 1016,4 hPa 0,0 l/m 0,0 km/h NO 15,7 C 22,6 C 0,0 km/h
05.07.2015 01:00 21,9 C 69 % 1016,2 hPa 0,0 l/m 0,0 km/h SO 15,9 C 21,9 C 0,0 km/h
05.07.2015 02:00 20,6 C 72 % 1016,0 hPa 0,0 l/m 0,0 km/h NO 15,4 C 20,6 C 0,0 km/h
05.07.2015 03:00 19,9 C 76 % 1015,6 hPa 0,0 l/m 0,0 km/h O-NO 15,5 C 19,9 C 0,0 km/h
05.07.2015 04:00 19,3 C 78 % 1015,5 hPa 0,0 l/m 0,0 km/h O-NO 15,4 C 19,3 C 0,0 km/h
05.07.2015 05:00 19,1 C 80 % 1015,5 hPa 0,0 l/m 0,0 km/h O-NO 15,6 C 19,1 C 0,0 km/h
05.07.2015 06:00 20,1 C 78 % 1015,7 hPa 0,0 l/m 0,0 km/h SO 16,1 C 20,1 C 0,0 km/h
05.07.2015 07:00 25,1 C 72 % 1015,7 hPa 0,0 l/m 0,0 km/h N 19,7 C 25,1 C 0,0 km/h
05.07.2015 08:00 32,0 C 53 % 1015,5 hPa 0,0 l/m 0,0 km/h S-SO 21,2 C 32,0 C 0,0 km/h
05.07.2015 09:00 36,3 C 40 % 1015,0 hPa 0,0 l/m 0,0 km/h N-NW 20,5 C 36,3 C 0,0 km/h
05.07.2015 10:00 35,6 C 40 % 1014,5 hPa 0,0 l/m 0,0 km/h SO 19,9 C 35,6 C 0,0 km/h
05.07.2015 11:00 36,2 C 40 % 1014,0 hPa 0,0 l/m 0,0 km/h W-NW 20,4 C 36,2 C 0,0 km/h
05.07.2015 12:00 36,3 C 41 % 1014,1 hPa 0,0 l/m 0,0 km/h W-NW 20,9 C 36,3 C 0,0 km/h
05.07.2015 13:00 37,8 C 37 % 1013,6 hPa 0,0 l/m 9,7 km/h S-SW 20,6 C 37,8 C 5,4 km/h
05.07.2015 14:00 39,0 C 34 % 1012,4 hPa 0,0 l/m 21,4 km/h W 20,2 C 39,0 C 11,9 km/h
05.07.2015 15:00 38,6 C 31 % 1012,2 hPa 0,0 l/m 9,7 km/h W-NW 18,4 C 38,6 C 5,4 km/h
05.07.2015 16:00 40,8 C 28 % 1011,1 hPa 0,0 l/m 3,2 km/h W-NW 18,6 C 40,8 C 1,8 km/h
05.07.2015 17:00 42,9 C 26 % 1010,7 hPa 0,0 l/m 11,0 km/h W 19,2 C 42,9 C 6,1 km/h
05.07.2015 18:00 41,4 C 27 % 1010,1 hPa 0,0 l/m 0,0 km/h W-NW 18,6 C 41,4 C 0,0 km/h
05.07.2015 19:00 35,2 C 39 % 1010,4 hPa 0,0 l/m 0,0 km/h W-SW 19,1 C 35,2 C 0,0 km/h
05.07.2015 20:00 31,3 C 49 % 1011,5 hPa 0,0 l/m 0,0 km/h W 19,3 C 31,3 C 0,0 km/h
05.07.2015 21:00 29,9 C 47 % 1012,5 hPa 0,0 l/m 0,0 km/h N-NO 17,3 C 29,9 C 0,0 km/h
05.07.2015 22:00 28,8 C 51 % 1014,6 hPa 0,0 l/m 16,2 km/h NW 17,6 C 27,8 C 9,0 km/h
05.07.2015 23:00 27,5 C 53 % 1015,6 hPa 0,0 l/m 0,0 km/h W-NW 17,0 C 27,5 C 0,0 km/h
Min-Datum _ 29.06.15 04.07.15 05.07.15 - 29.06.15 - 29.06.15 29.06.15 29.06.15
_ Min-Zeit 05:51 17:51 18:51 - 00:51 - 05:51 05:51 00:51
Minimum _ 12,4 C 23 % 1010,1 hPa - 0,0 km/h - 9,8 C 12,4 C 0,0 km/h
Max-Datum _ 04.07.15 29.06.15 03.07.15 29.06.15 03.07.15 - 03.07.15 04.07.15 03.07.15
_ Max-Zeit 17:51 04:51 08:51 00:51 15:51 - 08:51 17:51 15:51
Maximum _ 42,9 C 84 % 1020,9 hPa 0,0 l/m 23,3 km/h
N-NW
- 22,8 C 42,9 C 13,0 km/h
N-NW
Durchschnitt _ 27,7 C 57 % 1016,9 hPa #0,0 l/m 2,2 km/h W-NW 17,2 C 27,7 C 1,2 km/h
www.sexauwetter.de